Harrisville, Vermont
Current Conditions -  °F | °C
As of 12:55 PM on Thursday 30 Oct 2014 (Local Time) from KEEN Reporting Station
Overcast Overcast  
Wind Chill: 52°   Ceiling: 4400
Heat Index: 52°   Visibility: 10mi
Dew Point: 34°   Wind: 12mph
Humidity: 50%   Direction: 320°NW
Pressure: 29.94"   Gusts: NA
Location:  42.8513°N, 72.6568°W
Report Text: KEEN 301655Z AUTO 32010KT 10SM SCT034 BKN044 OVC070 11/01 A2994 RMK AO1
Loading
Personal Weather Stations






























Interactive Weather Map
Tropical Storm Tracking
New forecast layout! Learn more

10-Day Weather Forecast

Advertisements
Track Severe Weather on mobile